Time;durP1;ratioP1;P1;durP2;ratioP2;P2;SDS_P1;SDS_P2;PMS_P1;PMS_P2;Temp;Humidity;BMP_temperature;BMP_pressure;BME280_temperature;BME280_humidity;BME280_pressure;Samples;Min_cycle;Max_cycle;Signal;HPM_P1;HPM_P2
2023/06/03 00:02:16;;;;;;;10.48;6.47;;;;;;;;;;5054095;28;20029;-69
2023/06/03 00:04:43;;;;;;;10.13;6.03;;;;;;;;;;5054124;28;20481;-69
2023/06/03 00:07:09;;;;;;;12.38;5.82;;;;;;;;;;5054016;28;20035;-69
2023/06/03 00:09:36;;;;;;;7.07;5.70;;;;;;;;;;5053994;28;20037;-69
2023/06/03 00:12:02;;;;;;;11.73;6.05;;;;;;;;;;5054241;28;20027;-69
2023/06/03 00:14:28;;;;;;;7.25;5.80;;;;;;;;;;5053993;28;20036;-69
2023/06/03 00:16:56;;;;;;;7.72;5.40;;;;;;;;;;5054099;28;20037;-69
2023/06/03 00:19:22;;;;;;;7.90;5.05;;;;;;;;;;5053734;28;20435;-69
2023/06/03 00:21:54;;;;;;;11.35;5.70;;;;;;;;;;5053464;28;20017;-69
2023/06/03 00:24:22;;;;;;;7.13;5.47;;;;;;;;;;5053759;28;20047;-69
2023/06/03 00:26:52;;;;;;;7.22;5.13;;;;;;;;;;5053656;28;20031;-69
2023/06/03 00:29:19;;;;;;;9.27;5.95;;;;;;;;;;5053850;28;20025;-69
2023/06/03 00:31:46;;;;;;;7.72;5.78;;;;;;;;;;5053087;28;20035;-69
2023/06/03 00:34:12;;;;;;;7.68;5.70;;;;;;;;;;5053151;28;20058;-69
2023/06/03 00:36:39;;;;;;;12.07;5.95;;;;;;;;;;5053421;28;20404;-69
2023/06/03 00:39:06;;;;;;;8.40;5.68;;;;;;;;;;5053665;28;20021;-69
2023/06/03 00:41:33;;;;;;;10.38;6.25;;;;;;;;;;5053308;28;20086;-69
2023/06/03 00:43:59;;;;;;;9.20;6.53;;;;;;;;;;5053381;28;20032;-69
2023/06/03 00:46:26;;;;;;;7.50;6.18;;;;;;;;;;5053442;28;20021;-69
2023/06/03 00:48:52;;;;;;;7.55;6.70;;;;;;;;;;5053268;28;20029;-69
2023/06/03 00:51:19;;;;;;;8.23;6.18;;;;;;;;;;5053032;28;20033;-69
2023/06/03 00:53:45;;;;;;;6.93;6.22;;;;;;;;;;5053167;28;20027;-69
2023/06/03 00:56:12;;;;;;;8.57;5.95;;;;;;;;;;5053151;28;20031;-69
2023/06/03 00:58:39;;;;;;;9.68;6.00;;;;;;;;;;5053022;28;20013;-69
2023/06/03 01:01:05;;;;;;;10.48;5.88;;;;;;;;;;5053365;28;20473;-69
2023/06/03 01:03:32;;;;;;;13.20;6.35;;;;;;;;;;5052838;28;20020;-69
2023/06/03 01:06:01;;;;;;;31.58;7.28;;;;;;;;;;5052823;28;20028;-69
2023/06/03 01:08:31;;;;;;;9.05;6.35;;;;;;;;;;5052865;28;20031;-69
2023/06/03 01:11:16;;;;;;;8.07;6.10;;;;;;;;;;5052916;28;20035;-69
2023/06/03 01:13:45;;;;;;;10.35;6.20;;;;;;;;;;5052917;28;20311;-69
2023/06/03 01:16:14;;;;;;;12.00;6.38;;;;;;;;;;5052829;28;20039;-69
2023/06/03 01:18:42;;;;;;;10.30;6.47;;;;;;;;;;5052659;28;20019;-69
2023/06/03 01:21:08;;;;;;;10.98;6.70;;;;;;;;;;5052684;28;20037;-69
2023/06/03 01:23:34;;;;;;;8.13;6.75;;;;;;;;;;5052513;28;20102;-69
2023/06/03 01:26:04;;;;;;;7.80;6.50;;;;;;;;;;5052494;28;20028;-69
2023/06/03 01:28:31;;;;;;;13.35;6.50;;;;;;;;;;5052887;28;20025;-69
2023/06/03 01:30:58;;;;;;;8.32;6.55;;;;;;;;;;5052465;28;20031;-69
2023/06/03 01:33:26;;;;;;;17.58;7.25;;;;;;;;;;5052406;28;20036;-69
2023/06/03 01:35:54;;;;;;;8.05;6.40;;;;;;;;;;5052583;28;20025;-69
2023/06/03 01:38:20;;;;;;;8.65;7.20;;;;;;;;;;5051229;28;20481;-69
2023/06/03 01:40:47;;;;;;;7.35;6.55;;;;;;;;;;5084804;28;20442;-69
2023/06/03 01:43:13;;;;;;;13.02;6.85;;;;;;;;;;5052258;28;20013;-68
2023/06/03 01:45:40;;;;;;;12.00;6.40;;;;;;;;;;5052480;28;20077;-69
2023/06/03 01:48:06;;;;;;;15.77;7.25;;;;;;;;;;5052067;28;20489;-69
2023/06/03 01:50:32;;;;;;;12.20;6.80;;;;;;;;;;5052159;28;20103;-69
2023/06/03 01:52:59;;;;;;;10.15;6.43;;;;;;;;;;5052181;28;20515;-69
2023/06/03 01:55:25;;;;;;;10.52;6.75;;;;;;;;;;5052119;28;20485;-69
2023/06/03 01:57:52;;;;;;;11.73;6.75;;;;;;;;;;5052132;28;20043;-69
2023/06/03 02:00:18;;;;;;;15.43;7.53;;;;;;;;;;5052016;28;20017;-69
2023/06/03 02:02:46;;;;;;;12.63;6.40;;;;;;;;;;5052072;28;20032;-69
2023/06/03 02:05:12;;;;;;;12.88;7.22;;;;;;;;;;5052012;28;20477;-69
2023/06/03 02:07:38;;;;;;;8.70;6.05;;;;;;;;;;5052058;28;20028;-70
2023/06/03 02:10:05;;;;;;;16.42;7.00;;;;;;;;;;5052096;28;20493;-69
2023/06/03 02:12:31;;;;;;;13.32;7.53;;;;;;;;;;5051973;28;20029;-69
2023/06/03 02:14:58;;;;;;;10.38;6.18;;;;;;;;;;5052171;28;20029;-69
2023/06/03 02:17:24;;;;;;;9.98;6.88;;;;;;;;;;5051879;28;20017;-69
2023/06/03 02:19:51;;;;;;;15.00;7.53;;;;;;;;;;5051868;28;20028;-69
2023/06/03 02:22:17;;;;;;;11.82;6.85;;;;;;;;;;5051909;28;20063;-69
2023/06/03 02:24:46;;;;;;;12.95;6.50;;;;;;;;;;5051712;28;20053;-69
2023/06/03 02:27:14;;;;;;;16.52;6.68;;;;;;;;;;5051976;28;20037;-69
2023/06/03 02:29:42;;;;;;;15.85;7.03;;;;;;;;;;5051854;28;20024;-69
2023/06/03 02:32:08;;;;;;;12.93;6.60;;;;;;;;;;5051834;28;20035;-69
2023/06/03 02:34:34;;;;;;;12.60;6.63;;;;;;;;;;5051781;28;20519;-69
2023/06/03 02:37:01;;;;;;;11.55;7.07;;;;;;;;;;5052079;28;20033;-69
2023/06/03 02:39:54;;;;;;;11.20;7.03;;;;;;;;;;5009896;28;20471;-69
2023/06/03 02:42:20;;;;;;;13.75;6.72;;;;;;;;;;5009944;28;20132;-69
2023/06/03 02:44:47;;;;;;;18.48;6.88;;;;;;;;;;5009917;28;20038;-69
2023/06/03 02:47:13;;;;;;;12.85;6.93;;;;;;;;;;5009831;28;20040;-68
2023/06/03 02:49:39;;;;;;;8.68;6.75;;;;;;;;;;5009628;28;20026;-69
2023/06/03 02:52:06;;;;;;;13.43;6.60;;;;;;;;;;5009703;28;20034;-69
2023/06/03 02:54:32;;;;;;;10.85;6.95;;;;;;;;;;5010212;28;20030;-69
2023/06/03 02:56:58;;;;;;;13.05;7.00;;;;;;;;;;5012608;28;20041;-69
2023/06/03 02:59:25;;;;;;;9.45;6.85;;;;;;;;;;5013367;28;20506;-69
2023/06/03 03:01:51;;;;;;;10.50;7.22;;;;;;;;;;5013089;28;20034;-69
2023/06/03 03:04:17;;;;;;;8.75;7.05;;;;;;;;;;5013360;28;20040;-69
2023/06/03 03:06:44;;;;;;;10.55;7.47;;;;;;;;;;5013327;28;20030;-69
2023/06/03 03:09:10;;;;;;;11.35;6.65;;;;;;;;;;5013262;28;20025;-69
2023/06/03 03:11:37;;;;;;;10.65;7.35;;;;;;;;;;5013266;28;20042;-69
2023/06/03 03:14:03;;;;;;;11.68;6.95;;;;;;;;;;4996940;28;20030;-69
2023/06/03 03:16:29;;;;;;;10.80;7.15;;;;;;;;;;5022190;28;20048;-69
2023/06/03 03:18:56;;;;;;;12.60;7.25;;;;;;;;;;5035313;28;20017;-69
2023/06/03 03:21:22;;;;;;;9.20;6.63;;;;;;;;;;5035561;28;20044;-69
2023/06/03 03:23:49;;;;;;;8.60;6.30;;;;;;;;;;5034947;28;20049;-69
2023/06/03 03:26:15;;;;;;;8.27;6.53;;;;;;;;;;5034990;28;20075;-68
2023/06/03 03:28:41;;;;;;;15.25;6.70;;;;;;;;;;5035335;28;20025;-69
2023/06/03 03:31:09;;;;;;;7.45;6.07;;;;;;;;;;5034889;28;20033;-68
2023/06/03 03:33:35;;;;;;;9.27;6.18;;;;;;;;;;5034998;28;20036;-69
2023/06/03 03:36:08;;;;;;;10.02;6.93;;;;;;;;;;5035342;28;20033;-69
2023/06/03 03:38:36;;;;;;;18.58;6.65;;;;;;;;;;5034628;28;20026;-69
2023/06/03 03:41:04;;;;;;;8.98;7.10;;;;;;;;;;5034812;28;20028;-69
2023/06/03 03:43:31;;;;;;;10.45;6.85;;;;;;;;;;5034733;28;20060;-69
2023/06/03 03:45:57;;;;;;;13.38;6.18;;;;;;;;;;5034749;28;20480;-69
2023/06/03 03:48:27;;;;;;;8.45;6.38;;;;;;;;;;5034743;28;20033;-69
2023/06/03 03:50:53;;;;;;;13.15;6.53;;;;;;;;;;5034426;28;20040;-69
2023/06/03 03:53:21;;;;;;;11.32;6.35;;;;;;;;;;5034798;28;20498;-69
2023/06/03 03:55:48;;;;;;;12.10;6.85;;;;;;;;;;5034508;28;20037;-69
2023/06/03 03:58:33;;;;;;;8.90;6.93;;;;;;;;;;5047774;28;20017;-69
2023/06/03 04:01:00;;;;;;;8.70;6.53;;;;;;;;;;5054260;28;20362;-69
2023/06/03 04:03:30;;;;;;;12.95;7.45;;;;;;;;;;5054400;28;20017;-69
2023/06/03 04:05:56;;;;;;;15.68;7.03;;;;;;;;;;5054304;28;20025;-69
2023/06/03 04:08:45;;;;;;;13.30;6.78;;;;;;;;;;5054043;28;20025;-69
2023/06/03 04:11:20;;;;;;;11.65;6.65;;;;;;;;;;5054021;28;20037;-69
2023/06/03 04:13:47;;;;;;;8.40;6.80;;;;;;;;;;5053752;28;20025;-69
2023/06/03 04:16:31;;;;;;;10.20;6.32;;;;;;;;;;5054186;28;20029;-69
2023/06/03 04:18:58;;;;;;;7.38;6.43;;;;;;;;;;5053843;28;20024;-69
2023/06/03 04:21:24;;;;;;;8.93;6.75;;;;;;;;;;5053910;28;20029;-69
2023/06/03 04:23:50;;;;;;;8.75;6.75;;;;;;;;;;5053842;28;20041;-69
2023/06/03 04:26:19;;;;;;;8.45;6.63;;;;;;;;;;5053827;28;20044;-69
2023/06/03 04:28:45;;;;;;;8.43;7.15;;;;;;;;;;5053445;28;20032;-69
2023/06/03 04:31:11;;;;;;;9.60;7.05;;;;;;;;;;5053896;28;20103;-69
2023/06/03 04:33:38;;;;;;;10.05;6.80;;;;;;;;;;5053668;28;20028;-69
2023/06/03 04:36:04;;;;;;;8.18;6.57;;;;;;;;;;5053573;28;20027;-69
2023/06/03 04:38:31;;;;;;;8.43;7.05;;;;;;;;;;5053490;28;20029;-69
2023/06/03 04:40:57;;;;;;;9.45;6.63;;;;;;;;;;5053476;28;20035;-69
2023/06/03 04:43:24;;;;;;;11.05;7.10;;;;;;;;;;5053630;28;20029;-69
2023/06/03 04:45:53;;;;;;;11.30;6.47;;;;;;;;;;5053765;28;20020;-69
2023/06/03 04:48:22;;;;;;;11.48;6.70;;;;;;;;;;5053535;28;20017;-69
2023/06/03 04:50:49;;;;;;;10.13;6.53;;;;;;;;;;5053220;28;20401;-69
2023/06/03 04:53:15;;;;;;;7.95;6.68;;;;;;;;;;5053296;28;20039;-69
2023/06/03 04:55:43;;;;;;;10.80;6.00;;;;;;;;;;5053202;28;20473;-69
2023/06/03 04:58:10;;;;;;;7.00;6.30;;;;;;;;;;5053016;28;20021;-69
2023/06/03 05:00:37;;;;;;;8.02;5.93;;;;;;;;;;5053083;28;20504;-69
2023/06/03 05:03:08;;;;;;;12.10;6.50;;;;;;;;;;5053186;28;20031;-69
2023/06/03 05:05:36;;;;;;;7.30;6.45;;;;;;;;;;5052990;28;20047;-69
2023/06/03 05:08:02;;;;;;;10.65;7.00;;;;;;;;;;5053120;28;20424;-69
2023/06/03 05:10:28;;;;;;;14.05;7.50;;;;;;;;;;5052811;28;20048;-69
2023/06/03 05:12:57;;;;;;;10.52;7.22;;;;;;;;;;5052823;28;20028;-69
2023/06/03 05:15:23;;;;;;;8.57;7.00;;;;;;;;;;5052761;28;20029;-69
2023/06/03 05:17:49;;;;;;;9.32;7.18;;;;;;;;;;5053062;28;20036;-69
2023/06/03 05:20:16;;;;;;;12.10;6.57;;;;;;;;;;5052298;28;20025;-69
2023/06/03 05:22:42;;;;;;;9.35;5.95;;;;;;;;;;5051613;28;20025;-69
2023/06/03 05:25:09;;;;;;;13.02;6.70;;;;;;;;;;5052457;28;20021;-69
2023/06/03 05:27:35;;;;;;;8.77;6.30;;;;;;;;;;5052562;28;20043;-69
2023/06/03 05:30:02;;;;;;;12.82;6.32;;;;;;;;;;5052573;28;20074;-69
2023/06/03 05:32:28;;;;;;;7.55;5.82;;;;;;;;;;5052576;28;20540;-69
2023/06/03 05:34:54;;;;;;;9.07;5.60;;;;;;;;;;5052467;28;20035;-69
2023/06/03 05:37:21;;;;;;;8.35;6.00;;;;;;;;;;5052596;28;20489;-69
2023/06/03 05:39:48;;;;;;;12.93;6.00;;;;;;;;;;5052278;28;20021;-69
2023/06/03 05:42:14;;;;;;;6.45;5.80;;;;;;;;;;5052552;28;20033;-69
2023/06/03 05:44:40;;;;;;;12.05;5.75;;;;;;;;;;5052483;28;20021;-69
2023/06/03 05:47:07;;;;;;;7.07;5.40;;;;;;;;;;5052471;28;20041;-70
2023/06/03 05:49:33;;;;;;;7.90;5.00;;;;;;;;;;5052281;28;20029;-69
2023/06/03 05:51:59;;;;;;;6.60;5.45;;;;;;;;;;5052156;28;20504;-69
2023/06/03 05:54:28;;;;;;;8.98;5.30;;;;;;;;;;5051965;28;20477;-69
2023/06/03 05:56:57;;;;;;;6.80;5.28;;;;;;;;;;5051955;28;20017;-69
2023/06/03 05:59:24;;;;;;;6.78;4.82;;;;;;;;;;5052122;28;20017;-69
2023/06/03 06:01:50;;;;;;;13.15;6.03;;;;;;;;;;5052195;28;20490;-69
2023/06/03 06:04:17;;;;;;;11.68;5.68;;;;;;;;;;5051993;28;20023;-69
2023/06/03 06:06:43;;;;;;;9.90;5.07;;;;;;;;;;5050844;28;20043;-69
2023/06/03 06:09:10;;;;;;;5.53;4.82;;;;;;;;;;5052163;28;20017;-70
2023/06/03 06:11:36;;;;;;;6.07;4.68;;;;;;;;;;5051820;28;20036;-69
2023/06/03 06:14:02;;;;;;;7.32;4.30;;;;;;;;;;5052036;28;20025;-69
2023/06/03 06:16:29;;;;;;;5.72;4.20;;;;;;;;;;5052155;28;20032;-69
2023/06/03 06:18:57;;;;;;;6.38;4.38;;;;;;;;;;5051807;28;20035;-69
2023/06/03 06:21:23;;;;;;;5.88;4.07;;;;;;;;;;5050722;28;20043;-69
2023/06/03 06:23:50;;;;;;;5.85;4.00;;;;;;;;;;5051826;28;20040;-69
2023/06/03 06:26:16;;;;;;;7.30;4.40;;;;;;;;;;5051742;28;20029;-69
2023/06/03 06:28:42;;;;;;;6.60;4.30;;;;;;;;;;5051827;28;20086;-69
2023/06/03 06:31:10;;;;;;;6.85;4.18;;;;;;;;;;5053595;28;20041;-69
2023/06/03 06:33:37;;;;;;;7.28;4.80;;;;;;;;;;5055841;28;20432;-69
2023/06/03 06:36:32;;;;;;;5.28;4.32;;;;;;;;;;5055955;28;20013;-69
2023/06/03 06:38:58;;;;;;;12.88;4.90;;;;;;;;;;5055607;28;20043;-69
2023/06/03 06:41:25;;;;;;;6.40;4.43;;;;;;;;;;5055981;28;20023;-69
2023/06/03 06:43:52;;;;;;;7.07;4.70;;;;;;;;;;5056010;28;20055;-69
2023/06/03 06:46:19;;;;;;;7.97;4.70;;;;;;;;;;5055674;28;20021;-69
2023/06/03 06:48:45;;;;;;;7.78;4.53;;;;;;;;;;5055813;28;20029;-69
2023/06/03 06:51:12;;;;;;;4.72;4.22;;;;;;;;;;5055494;28;20036;-69
2023/06/03 06:53:38;;;;;;;4.95;3.90;;;;;;;;;;5055261;28;20370;-69
2023/06/03 06:56:07;;;;;;;9.43;4.22;;;;;;;;;;5054753;28;20035;-69
2023/06/03 06:58:37;;;;;;;7.75;4.00;;;;;;;;;;5055561;28;20025;-69
2023/06/03 07:01:07;;;;;;;7.40;4.33;;;;;;;;;;5055326;28;20028;-69
2023/06/03 07:03:34;;;;;;;5.13;3.85;;;;;;;;;;5055528;28;20025;-69
2023/06/03 07:06:00;;;;;;;7.35;4.05;;;;;;;;;;5055406;28;20051;-69
2023/06/03 07:08:27;;;;;;;4.95;3.80;;;;;;;;;;5055453;28;20029;-69
2023/06/03 07:10:59;;;;;;;4.45;3.70;;;;;;;;;;5055109;28;20098;-69
2023/06/03 07:13:26;;;;;;;9.43;4.07;;;;;;;;;;5055646;28;20024;-69
2023/06/03 07:15:52;;;;;;;6.72;3.15;;;;;;;;;;5055170;28;20021;-69
2023/06/03 07:18:21;;;;;;;5.13;3.55;;;;;;;;;;5054112;28;20037;-69
2023/06/03 07:20:48;;;;;;;4.93;3.80;;;;;;;;;;5054995;28;20358;-69
2023/06/03 07:23:20;;;;;;;9.30;5.38;;;;;;;;;;5051683;28;20044;-70
2023/06/03 07:25:47;;;;;;;6.65;3.72;;;;;;;;;;5043904;28;20033;-69
2023/06/03 07:28:34;;;;;;;5.82;3.70;;;;;;;;;;5053553;28;20496;-69
2023/06/03 07:31:03;;;;;;;7.45;3.67;;;;;;;;;;5053607;28;20316;-69
2023/06/03 07:33:30;;;;;;;7.07;3.95;;;;;;;;;;5053848;28;20024;-69
2023/06/03 07:35:58;;;;;;;4.45;2.97;;;;;;;;;;5053683;28;20031;-70
2023/06/03 07:38:33;;;;;;;4.47;3.78;;;;;;;;;;5053470;28;20024;-70
2023/06/03 07:41:00;;;;;;;7.55;3.67;;;;;;;;;;5053450;28;20032;-70
2023/06/03 07:43:28;;;;;;;3.63;3.28;;;;;;;;;;5053446;28;20043;-70
2023/06/03 07:45:55;;;;;;;3.95;3.00;;;;;;;;;;5053453;28;20087;-70
2023/06/03 07:48:21;;;;;;;4.50;3.63;;;;;;;;;;5053325;28;20051;-70
2023/06/03 07:50:48;;;;;;;7.20;3.97;;;;;;;;;;5053007;28;20021;-70
2023/06/03 07:53:22;;;;;;;4.60;3.25;;;;;;;;;;5053262;28;20025;-70
2023/06/03 07:55:50;;;;;;;6.25;3.55;;;;;;;;;;5053487;28;20033;-70
2023/06/03 07:58:16;;;;;;;7.20;3.60;;;;;;;;;;5053029;28;20426;-70
2023/06/03 08:00:44;;;;;;;4.40;3.33;;;;;;;;;;5053296;28;20025;-70
2023/06/03 08:03:15;;;;;;;4.10;3.53;;;;;;;;;;5053166;28;20047;-71
2023/06/03 08:05:42;;;;;;;6.80;3.65;;;;;;;;;;5053230;28;20023;-70
2023/06/03 08:08:12;;;;;;;3.58;3.28;;;;;;;;;;5053109;28;20021;-70
2023/06/03 08:10:39;;;;;;;4.18;3.03;;;;;;;;;;5053232;28;20074;-70
2023/06/03 08:13:05;;;;;;;6.18;3.17;;;;;;;;;;5053386;28;20032;-70
2023/06/03 08:15:35;;;;;;;4.32;3.35;;;;;;;;;;5052925;28;20017;-70
2023/06/03 08:18:01;;;;;;;;;;;;;;;;;;5053379;28;20033;-70
2023/06/03 08:20:28;;;;;;;3.13;2.85;;;;;;;;;;5052724;28;20272;-71
2023/06/03 08:22:56;;;;;;;4.27;2.90;;;;;;;;;;5011754;28;1185712;-71
2023/06/03 08:25:23;;;;;;;4.10;3.00;;;;;;;;;;5053827;28;20040;-70
2023/06/03 08:27:50;;;;;;;5.07;3.08;;;;;;;;;;5053677;28;20029;-70
2023/06/03 08:30:17;;;;;;;4.00;3.63;;;;;;;;;;5052645;28;20082;-70
2023/06/03 08:32:43;;;;;;;4.38;3.00;;;;;;;;;;5053736;28;20032;-70
2023/06/03 08:35:11;;;;;;;4.35;3.22;;;;;;;;;;5053585;28;20029;-70
2023/06/03 08:37:38;;;;;;;4.45;3.38;;;;;;;;;;5053844;28;20033;-70
2023/06/03 08:40:07;;;;;;;3.63;2.88;;;;;;;;;;5053652;28;20347;-71
2023/06/03 08:42:36;;;;;;;4.60;3.40;;;;;;;;;;5053817;28;20027;-70
2023/06/03 08:45:03;;;;;;;;;;;;;;;;;;5054085;28;20025;-70
2023/06/03 08:47:52;;;;;;;4.10;3.00;;;;;;;;;;5053356;28;19958;-70
2023/06/03 08:50:21;;;;;;;5.10;3.35;;;;;;;;;;5053336;28;20535;-70
2023/06/03 08:52:48;;;;;;;6.88;3.55;;;;;;;;;;5052965;28;20204;-70
2023/06/03 08:55:17;;;;;;;4.50;3.10;;;;;;;;;;5052809;28;20017;-70
2023/06/03 08:57:49;;;;;;;3.55;3.20;;;;;;;;;;5053282;28;20037;-70
2023/06/03 09:00:18;;;;;;;3.60;3.25;;;;;;;;;;5053143;28;20021;-71
2023/06/03 09:02:44;;;;;;;3.33;3.03;;;;;;;;;;5053314;28;20070;-70
2023/06/03 09:05:10;;;;;;;4.25;2.83;;;;;;;;;;5053303;28;20033;-70
2023/06/03 09:07:38;;;;;;;3.65;3.25;;;;;;;;;;5053001;28;20037;-70
2023/06/03 09:10:05;;;;;;;4.07;3.55;;;;;;;;;;5052978;28;20017;-70
2023/06/03 09:12:32;;;;;;;6.03;3.17;;;;;;;;;;5052782;28;20059;-71
2023/06/03 09:15:00;;;;;;;4.38;3.25;;;;;;;;;;5052959;28;20025;-70
2023/06/03 09:17:27;;;;;;;3.83;3.38;;;;;;;;;;5052510;28;20375;-71
2023/06/03 09:19:57;;;;;;;3.67;3.30;;;;;;;;;;5053116;28;20016;-71
2023/06/03 09:22:24;;;;;;;3.28;3.00;;;;;;;;;;5052903;28;20093;-71
2023/06/03 09:24:51;;;;;;;4.07;2.97;;;;;;;;;;5052603;28;20045;-70
2023/06/03 09:27:17;;;;;;;4.78;3.33;;;;;;;;;;5052712;28;20031;-70
2023/06/03 09:29:43;;;;;;;3.85;3.00;;;;;;;;;;5052570;28;20025;-71
2023/06/03 09:32:10;;;;;;;3.50;3.20;;;;;;;;;;5052287;28;20045;-71
2023/06/03 09:34:37;;;;;;;4.15;3.38;;;;;;;;;;5052830;28;20025;-71
2023/06/03 09:37:09;;;;;;;3.67;3.38;;;;;;;;;;5052682;28;20021;-71
2023/06/03 09:39:36;;;;;;;3.30;3.00;;;;;;;;;;5052491;28;20051;-71
2023/06/03 09:42:03;;;;;;;3.33;2.90;;;;;;;;;;5052486;28;20035;-70
2023/06/03 09:44:40;;;;;;;3.97;2.90;;;;;;;;;;5052417;28;20047;-71
2023/06/03 09:47:07;;;;;;;3.35;2.95;;;;;;;;;;5051039;28;20040;-68
2023/06/03 09:49:34;;;;;;;4.28;3.03;;;;;;;;;;5052548;28;20040;-68
2023/06/03 09:52:01;;;;;;;4.20;3.15;;;;;;;;;;5052230;28;20477;-68
2023/06/03 09:54:27;;;;;;;5.93;3.20;;;;;;;;;;5052247;28;20021;-68
2023/06/03 09:56:53;;;;;;;2.97;2.78;;;;;;;;;;5052268;28;20555;-68
2023/06/03 09:59:21;;;;;;;5.53;3.22;;;;;;;;;;5052450;28;20035;-68
2023/06/03 10:01:48;;;;;;;3.70;2.92;;;;;;;;;;5052062;28;20031;-68
2023/06/03 10:04:18;;;;;;;4.20;3.17;;;;;;;;;;5051056;28;20021;-69
2023/06/03 10:06:44;;;;;;;3.13;2.83;;;;;;;;;;5050699;28;20028;-68
2023/06/03 10:09:19;;;;;;;3.45;3.00;;;;;;;;;;5052583;28;20025;-68
2023/06/03 10:11:55;;;;;;;2.60;2.35;;;;;;;;;;5051963;28;20041;-68
2023/06/03 10:14:22;;;;;;;4.07;2.92;;;;;;;;;;5052220;28;20021;-68
2023/06/03 10:17:07;;;;;;;3.83;2.80;;;;;;;;;;5051516;28;20482;-68
2023/06/03 10:19:37;;;;;;;3.47;3.17;;;;;;;;;;5050724;28;20025;-67
2023/06/03 10:22:04;;;;;;;3.85;3.25;;;;;;;;;;5051881;28;20051;-67
2023/06/03 10:24:32;;;;;;;5.85;3.40;;;;;;;;;;5051748;28;20045;-68
2023/06/03 10:26:58;;;;;;;5.40;3.20;;;;;;;;;;5051841;28;20029;-67
2023/06/03 10:29:25;;;;;;;4.45;3.00;;;;;;;;;;5052142;28;20021;-68
2023/06/03 10:31:54;;;;;;;4.88;2.83;;;;;;;;;;5052100;28;20037;-70
2023/06/03 10:34:20;;;;;;;3.28;3.00;;;;;;;;;;5051783;28;20035;-70
2023/06/03 10:36:51;;;;;;;3.28;2.97;;;;;;;;;;5052026;28;20027;-71
2023/06/03 10:39:18;;;;;;;4.18;2.90;;;;;;;;;;5052095;28;20023;-71
2023/06/03 10:41:44;;;;;;;4.38;2.80;;;;;;;;;;5051628;28;20021;-71
2023/06/03 10:44:11;;;;;;;2.90;2.60;;;;;;;;;;5051476;28;20451;-71
2023/06/03 10:46:41;;;;;;;4.72;2.92;;;;;;;;;;5052073;28;20031;-70
2023/06/03 10:49:08;;;;;;;2.72;2.53;;;;;;;;;;5051870;28;20499;-70
2023/06/03 10:51:53;;;;;;;3.25;3.05;;;;;;;;;;5051749;28;20101;-70
2023/06/03 10:54:30;;;;;;;2.88;2.53;;;;;;;;;;5051798;28;20021;-68
2023/06/03 10:57:06;;;;;;;2.75;2.50;;;;;;;;;;5051400;28;20037;-68
2023/06/03 10:59:43;;;;;;;3.00;2.80;;;;;;;;;;5051398;28;20039;-68
2023/06/03 11:02:09;;;;;;;2.95;2.63;;;;;;;;;;5051586;28;20447;-67
2023/06/03 11:04:37;;;;;;;2.90;2.60;;;;;;;;;;5051590;28;20029;-67
2023/06/03 11:07:04;;;;;;;3.22;2.88;;;;;;;;;;5051526;28;20378;-68
2023/06/03 11:09:34;;;;;;;3.05;2.78;;;;;;;;;;5051425;28;20033;-68
2023/06/03 11:12:04;;;;;;;2.97;2.65;;;;;;;;;;5051518;28;20111;-68
2023/06/03 11:14:31;;;;;;;5.82;2.55;;;;;;;;;;5051423;28;20031;-68
2023/06/03 11:16:58;;;;;;;2.28;2.17;;;;;;;;;;5052603;28;20031;-68
2023/06/03 11:19:30;;;;;;;2.33;2.15;;;;;;;;;;5055158;28;20028;-68
2023/06/03 11:21:57;;;;;;;2.85;2.42;;;;;;;;;;5055435;28;20021;-68
2023/06/03 11:24:42;;;;;;;3.70;2.33;;;;;;;;;;5054893;28;20053;-68
2023/06/03 11:27:15;;;;;;;3.67;2.65;;;;;;;;;;5054938;28;20102;-68
2023/06/03 11:29:51;;;;;;;4.05;2.90;;;;;;;;;;5055264;28;20021;-70
2023/06/03 11:32:20;;;;;;;4.07;3.17;;;;;;;;;;5054814;28;20090;-70
2023/06/03 11:34:47;;;;;;;4.90;3.15;;;;;;;;;;5054824;28;20017;-70
2023/06/03 11:37:19;;;;;;;2.60;2.40;;;;;;;;;;5054739;28;20033;-70
2023/06/03 11:40:06;;;;;;;3.65;3.08;;;;;;;;;;5054730;28;20013;-70
2023/06/03 11:42:33;;;;;;;4.25;3.03;;;;;;;;;;5053247;28;20051;-70
2023/06/03 11:45:18;;;;;;;3.67;2.65;;;;;;;;;;5054731;28;20397;-71
2023/06/03 11:47:56;;;;;;;3.25;2.75;;;;;;;;;;5054498;28;20031;-70
2023/06/03 11:50:24;;;;;;;4.15;2.90;;;;;;;;;;5054646;28;20507;-70
2023/06/03 11:52:50;;;;;;;4.10;3.05;;;;;;;;;;5054559;28;20037;-70
2023/06/03 11:55:22;;;;;;;6.35;3.63;;;;;;;;;;5054526;28;20047;-70
2023/06/03 11:57:49;;;;;;;4.35;3.55;;;;;;;;;;5054179;28;20048;-70
2023/06/03 12:00:16;;;;;;;3.75;3.33;;;;;;;;;;5054441;28;20013;-70
2023/06/03 12:02:46;;;;;;;3.45;3.13;;;;;;;;;;5054504;28;20021;-70
2023/06/03 12:05:15;;;;;;;3.72;3.38;;;;;;;;;;5054481;28;20421;-70
2023/06/03 12:08:01;;;;;;;4.25;3.30;;;;;;;;;;5054125;28;20029;-69
2023/06/03 12:10:29;;;;;;;6.40;3.45;;;;;;;;;;5054282;28;20385;-70
2023/06/03 12:12:57;;;;;;;3.55;3.25;;;;;;;;;;5054125;28;20021;-70
2023/06/03 12:15:24;;;;;;;4.50;3.20;;;;;;;;;;5054518;28;20013;-70
2023/06/03 12:17:50;;;;;;;3.17;2.97;;;;;;;;;;5053925;28;20037;-70
2023/06/03 12:20:28;;;;;;;3.47;3.10;;;;;;;;;;5053461;28;20033;-70
2023/06/03 12:23:00;;;;;;;5.45;3.97;;;;;;;;;;5054286;28;20397;-70
2023/06/03 12:25:27;;;;;;;4.60;3.47;;;;;;;;;;5053781;28;20017;-70
2023/06/03 12:27:54;;;;;;;5.68;3.53;;;;;;;;;;5053111;28;20033;-70
2023/06/03 12:30:30;;;;;;;3.88;3.10;;;;;;;;;;5053698;28;20025;-70
2023/06/03 12:32:58;;;;;;;6.72;3.10;;;;;;;;;;5054112;28;20031;-70
2023/06/03 12:35:25;;;;;;;5.90;3.28;;;;;;;;;;5053822;28;20106;-70
2023/06/03 12:38:07;;;;;;;4.53;3.08;;;;;;;;;;5053656;28;20029;-70
2023/06/03 12:40:35;;;;;;;3.72;2.95;;;;;;;;;;5053674;28;20025;-70
2023/06/03 12:43:05;;;;;;;7.20;3.28;;;;;;;;;;5053773;28;20033;-70
2023/06/03 12:45:31;;;;;;;3.37;3.07;;;;;;;;;;5053689;28;20031;-70
2023/06/03 12:47:58;;;;;;;3.40;3.08;;;;;;;;;;5053364;28;20477;-70
2023/06/03 12:50:31;;;;;;;4.47;2.90;;;;;;;;;;5053273;28;20059;-70
2023/06/03 12:52:57;;;;;;;7.22;3.45;;;;;;;;;;5053399;28;20031;-70
2023/06/03 12:55:27;;;;;;;7.55;3.60;;;;;;;;;;5053395;28;20031;-70
2023/06/03 12:57:53;;;;;;;4.57;3.30;;;;;;;;;;5053098;28;20380;-69
2023/06/03 13:00:21;;;;;;;3.83;2.95;;;;;;;;;;5052084;28;20032;-69
2023/06/03 13:02:49;;;;;;;7.90;3.25;;;;;;;;;;5053051;28;20500;-71
2023/06/03 13:05:16;;;;;;;4.68;2.72;;;;;;;;;;5053037;28;20021;-69
2023/06/03 13:07:43;;;;;;;4.53;2.88;;;;;;;;;;5053054;28;20033;-69
2023/06/03 13:10:13;;;;;;;5.50;2.65;;;;;;;;;;5052793;28;20021;-70
2023/06/03 13:12:40;;;;;;;4.20;2.83;;;;;;;;;;5053108;28;20033;-69
2023/06/03 13:15:06;;;;;;;4.72;2.90;;;;;;;;;;5052820;28;20077;-70
2023/06/03 13:17:34;;;;;;;7.40;2.85;;;;;;;;;;5052753;28;20150;-69
2023/06/03 13:20:03;;;;;;;7.07;3.10;;;;;;;;;;5053037;28;20027;-69
2023/06/03 13:22:29;;;;;;;4.70;3.10;;;;;;;;;;5052770;28;20074;-69
2023/06/03 13:24:55;;;;;;;5.35;3.00;;;;;;;;;;5051255;28;20516;-70
2023/06/03 13:27:22;;;;;;;7.45;3.13;;;;;;;;;;5052804;28;20035;-69
2023/06/03 13:29:48;;;;;;;4.50;2.97;;;;;;;;;;5052893;28;20024;-69
2023/06/03 13:32:17;;;;;;;4.32;2.80;;;;;;;;;;5052449;28;20037;-70
2023/06/03 13:34:44;;;;;;;4.80;2.83;;;;;;;;;;5052414;28;20512;-70
2023/06/03 13:37:10;;;;;;;4.18;3.10;;;;;;;;;;5052723;28;20029;-69
2023/06/03 13:39:37;;;;;;;5.30;2.90;;;;;;;;;;5052178;28;20029;-69
2023/06/03 13:42:04;;;;;;;6.32;2.88;;;;;;;;;;5052366;28;20029;-69
2023/06/03 13:44:31;;;;;;;2.95;2.65;;;;;;;;;;5052429;28;20009;-69
2023/06/03 13:46:58;;;;;;;4.22;3.30;;;;;;;;;;5052251;28;20027;-69
2023/06/03 13:49:24;;;;;;;5.43;3.05;;;;;;;;;;5052609;28;20027;-70
2023/06/03 13:51:51;;;;;;;4.00;3.30;;;;;;;;;;5052208;28;20792;-69
2023/06/03 13:54:17;;;;;;;4.40;2.97;;;;;;;;;;5052002;28;20024;-70
2023/06/03 13:56:44;;;;;;;3.40;2.92;;;;;;;;;;5052289;28;20028;-70
2023/06/03 13:59:11;;;;;;;6.43;3.03;;;;;;;;;;5052184;28;20114;-69
2023/06/03 14:01:37;;;;;;;4.95;3.35;;;;;;;;;;5052161;28;20477;-69
2023/06/03 14:04:04;;;;;;;5.10;3.03;;;;;;;;;;5052082;28;20036;-69
2023/06/03 14:06:30;;;;;;;5.22;2.88;;;;;;;;;;5052100;28;20562;-69
2023/06/03 14:08:57;;;;;;;6.28;2.70;;;;;;;;;;5051895;28;20484;-69
2023/06/03 14:11:23;;;;;;;3.70;2.72;;;;;;;;;;5052105;28;20035;-69
2023/06/03 14:13:50;;;;;;;5.25;2.75;;;;;;;;;;5052166;28;20436;-69
2023/06/03 14:16:17;;;;;;;4.70;2.60;;;;;;;;;;5052193;28;20013;-69
2023/06/03 14:18:43;;;;;;;4.63;2.28;;;;;;;;;;5051994;28;20062;-69
2023/06/03 14:21:09;;;;;;;4.15;2.60;;;;;;;;;;5052254;28;20029;-69
2023/06/03 14:23:36;;;;;;;3.20;2.20;;;;;;;;;;5051514;28;20041;-69
2023/06/03 14:26:03;;;;;;;2.45;2.13;;;;;;;;;;5051842;28;20392;-69
2023/06/03 14:28:30;;;;;;;3.25;2.05;;;;;;;;;;5052241;28;20025;-69
2023/06/03 14:30:56;;;;;;;2.70;1.77;;;;;;;;;;5051704;28;20067;-69
2023/06/03 14:33:25;;;;;;;4.78;2.17;;;;;;;;;;5052173;28;20029;-69
2023/06/03 14:35:52;;;;;;;4.00;2.35;;;;;;;;;;5051976;28;20031;-70
2023/06/03 14:38:21;;;;;;;4.05;2.13;;;;;;;;;;5051774;28;20029;-69
2023/06/03 14:40:48;;;;;;;4.05;2.60;;;;;;;;;;5052135;28;20537;-69
2023/06/03 14:43:15;;;;;;;3.05;2.33;;;;;;;;;;5051685;28;20088;-69
2023/06/03 14:45:41;;;;;;;3.08;2.08;;;;;;;;;;5052058;28;20017;-70
2023/06/03 14:48:07;;;;;;;4.82;2.45;;;;;;;;;;5051558;28;20491;-69